createdAt,value
2019-01-25T00:01:59.976Z,-3.20
2019-01-25T00:04:28.779Z,-3.20
2019-01-25T00:06:57.595Z,-3.25
2019-01-25T00:09:26.462Z,-3.24
2019-01-25T00:11:55.313Z,-3.01
2019-01-25T00:14:24.094Z,-3.12
2019-01-25T00:16:52.893Z,-3.23
2019-01-25T00:19:21.670Z,-3.19
2019-01-25T00:21:50.455Z,-3.26
2019-01-25T00:24:19.239Z,-3.03
2019-01-25T00:26:48.107Z,-3.18
2019-01-25T00:29:17.702Z,-3.12
2019-01-25T00:31:46.647Z,-3.24
2019-01-25T00:34:15.432Z,-3.28
2019-01-25T00:36:44.290Z,-3.12
2019-01-25T00:39:13.134Z,-3.11
2019-01-25T00:41:41.930Z,-2.98
2019-01-25T00:44:10.880Z,-3.00
2019-01-25T00:46:39.744Z,-3.02
2019-01-25T00:49:08.643Z,-3.04
2019-01-25T00:51:37.500Z,-2.95
2019-01-25T00:54:06.576Z,-2.98
2019-01-25T00:56:35.469Z,-3.00
2019-01-25T00:59:04.739Z,-3.13
2019-01-25T01:01:33.780Z,-3.30
2019-01-25T01:04:02.564Z,-3.20
2019-01-25T01:06:31.444Z,-3.24
2019-01-25T01:09:00.335Z,-3.20
2019-01-25T01:11:29.127Z,-3.32
2019-01-25T01:13:57.989Z,-3.41
2019-01-25T01:16:26.866Z,-3.43
2019-01-25T01:18:55.664Z,-3.42
2019-01-25T01:21:24.536Z,-3.47
2019-01-25T01:23:53.315Z,-3.51
2019-01-25T01:26:22.268Z,-3.43
2019-01-25T01:28:51.057Z,-3.20
2019-01-25T01:31:20.233Z,-3.32
2019-01-25T01:33:49.103Z,-3.31
2019-01-25T01:36:17.891Z,-3.37
2019-01-25T01:38:46.749Z,-3.37
2019-01-25T01:41:15.621Z,-3.39
2019-01-25T01:43:44.483Z,-3.33
2019-01-25T01:46:13.399Z,-3.41
2019-01-25T01:48:42.177Z,-3.26
2019-01-25T01:51:11.107Z,-3.00
2019-01-25T01:53:39.971Z,-3.17
2019-01-25T01:56:08.915Z,-3.17
2019-01-25T01:58:37.810Z,-3.20
2019-01-25T02:01:06.851Z,-3.13
2019-01-25T02:03:35.778Z,-3.04
2019-01-25T02:06:04.993Z,-2.95
2019-01-25T02:08:33.808Z,-2.99
2019-01-25T02:11:02.599Z,-3.16
2019-01-25T02:13:31.554Z,-3.11
2019-01-25T02:16:00.490Z,-2.96
2019-01-25T02:18:29.290Z,-2.92
2019-01-25T02:20:58.533Z,-2.92
2019-01-25T02:23:27.393Z,-2.81
2019-01-25T02:25:56.256Z,-2.89
2019-01-25T02:28:25.190Z,-3.00
2019-01-25T02:30:54.053Z,-3.09
2019-01-25T02:33:22.927Z,-3.09
2019-01-25T02:35:52.544Z,-3.19
2019-01-25T02:38:21.388Z,-3.16
2019-01-25T02:40:50.182Z,-3.23
2019-01-25T02:43:19.072Z,-3.21
2019-01-25T02:45:48.000Z,-3.30
2019-01-25T02:48:16.875Z,-3.35
2019-01-25T02:50:45.726Z,-3.35
2019-01-25T02:53:14.529Z,-3.04
2019-01-25T02:55:43.306Z,-3.17
2019-01-25T02:58:12.462Z,-3.17
2019-01-25T03:00:41.256Z,-3.26
2019-01-25T03:03:10.126Z,-3.40
2019-01-25T03:05:38.998Z,-3.46
2019-01-25T03:08:07.869Z,-3.65
2019-01-25T03:10:36.808Z,-3.73
2019-01-25T03:13:05.810Z,-3.61
2019-01-25T03:15:34.685Z,-3.57
2019-01-25T03:18:03.543Z,-3.74
2019-01-25T03:20:32.321Z,-3.68
2019-01-25T03:23:01.101Z,-3.65
2019-01-25T03:25:30.031Z,-3.67
2019-01-25T03:27:58.822Z,-3.69
2019-01-25T03:30:27.879Z,-3.97
2019-01-25T03:32:56.808Z,-3.92
2019-01-25T03:35:26.730Z,-4.13
2019-01-25T03:37:55.665Z,-4.05
2019-01-25T03:40:28.610Z,-4.32
2019-01-25T03:42:57.681Z,-4.44
2019-01-25T03:45:27.559Z,-4.47
2019-01-25T03:47:56.496Z,-4.52
2019-01-25T03:50:27.617Z,-4.80
2019-01-25T03:52:56.652Z,-4.77
2019-01-25T03:55:25.790Z,-4.44
2019-01-25T03:57:55.524Z,-4.20
2019-01-25T04:00:26.405Z,-4.28
2019-01-25T04:02:55.759Z,-4.53
2019-01-25T04:05:25.678Z,-4.59
2019-01-25T04:07:54.722Z,-4.29
2019-01-25T04:10:25.694Z,-4.18
2019-01-25T04:12:54.652Z,-4.39
2019-01-25T04:15:34.449Z,-4.42
2019-01-25T04:18:03.409Z,-4.41
2019-01-25T04:20:32.276Z,-4.54
2019-01-25T04:23:01.147Z,-4.59
2019-01-25T04:25:30.031Z,-4.59
2019-01-25T04:27:58.906Z,-4.39
2019-01-25T04:30:29.593Z,-4.58
2019-01-25T04:32:58.472Z,-4.58
2019-01-25T04:35:27.517Z,-4.43
2019-01-25T04:37:56.991Z,-4.32
2019-01-25T04:40:26.027Z,-4.28
2019-01-25T04:42:54.980Z,-4.24
2019-01-25T04:45:24.131Z,-4.28
2019-01-25T04:47:53.170Z,-4.39
2019-01-25T04:50:23.925Z,-4.24
2019-01-25T04:52:53.394Z,-4.22
2019-01-25T04:55:33.207Z,-4.20
2019-01-25T04:58:13.371Z,-4.27
2019-01-25T05:00:42.400Z,-4.21
2019-01-25T05:03:11.432Z,-4.21
2019-01-25T05:05:40.466Z,-4.10
2019-01-25T05:08:17.690Z,-4.13
2019-01-25T05:10:46.746Z,-4.21
2019-01-25T05:13:15.693Z,-4.21
2019-01-25T05:15:44.726Z,-4.16
2019-01-25T05:18:13.987Z,-3.91
2019-01-25T05:20:43.016Z,-4.02
2019-01-25T05:23:11.951Z,-4.13
2019-01-25T05:25:40.733Z,-4.05
2019-01-25T05:28:17.972Z,-3.89
2019-01-25T05:31:00.979Z,-3.74
2019-01-25T05:33:29.870Z,-4.04
2019-01-25T05:35:59.315Z,-4.19
2019-01-25T05:38:28.183Z,-4.18
2019-01-25T05:40:57.253Z,-4.28
2019-01-25T05:43:26.045Z,-4.21
2019-01-25T05:45:54.906Z,-3.96
2019-01-25T05:48:29.800Z,-4.18
2019-01-25T05:51:02.627Z,-4.15
2019-01-25T05:53:31.423Z,-4.05
2019-01-25T05:56:00.288Z,-4.01
2019-01-25T05:58:30.254Z,-3.97
2019-01-25T06:00:59.110Z,-4.00
2019-01-25T06:03:28.043Z,-3.80
2019-01-25T06:06:01.578Z,-3.96
2019-01-25T06:08:31.541Z,-3.97
2019-01-25T06:11:02.488Z,-3.81
2019-01-25T06:13:31.432Z,-4.03
2019-01-25T06:16:00.285Z,-3.99
2019-01-25T06:18:29.209Z,-4.00
2019-01-25T06:20:58.556Z,-4.01
2019-01-25T06:23:27.410Z,-3.80
2019-01-25T06:25:57.916Z,-3.68
2019-01-25T06:28:26.976Z,-3.74
2019-01-25T06:30:56.009Z,-4.10
2019-01-25T06:33:24.957Z,-4.05
2019-01-25T06:35:53.786Z,-3.80
2019-01-25T06:38:22.716Z,-3.80
2019-01-25T06:40:51.592Z,-3.82
2019-01-25T06:43:20.546Z,-3.85
2019-01-25T06:45:49.967Z,-3.76
2019-01-25T06:48:19.069Z,-3.74
2019-01-25T06:50:47.858Z,-3.70
2019-01-25T06:53:16.722Z,-3.67
2019-01-25T06:55:45.592Z,-3.91
2019-01-25T06:58:33.372Z,-4.01
2019-01-25T07:01:14.443Z,-3.87
2019-01-25T07:03:43.228Z,-3.79
2019-01-25T07:06:12.110Z,-3.85
2019-01-25T07:08:40.989Z,-3.86
2019-01-25T07:11:09.893Z,-3.84
2019-01-25T07:13:38.684Z,-3.78
2019-01-25T07:16:07.496Z,-3.51
2019-01-25T07:18:36.532Z,-3.64
2019-01-25T07:21:05.488Z,-3.61
2019-01-25T07:23:34.294Z,-3.76
2019-01-25T07:26:04.294Z,-3.55
2019-01-25T07:28:34.110Z,-3.26
2019-01-25T07:31:03.475Z,-3.69
2019-01-25T07:33:32.439Z,-3.68
2019-01-25T07:36:01.414Z,-3.77
2019-01-25T07:38:30.248Z,-3.33
2019-01-25T07:40:59.121Z,-3.20
2019-01-25T07:43:27.971Z,-3.16
2019-01-25T07:45:56.881Z,-3.30
2019-01-25T07:48:25.933Z,-3.32
2019-01-25T07:50:54.764Z,-3.29
2019-01-25T07:53:23.594Z,-2.96
2019-01-25T07:55:52.367Z,-2.78
2019-01-25T07:58:21.214Z,-2.96
2019-01-25T08:00:50.027Z,-2.87
2019-01-25T08:03:18.814Z,-2.80
2019-01-25T08:05:47.705Z,-2.59
2019-01-25T08:08:16.547Z,-2.50
2019-01-25T08:10:45.356Z,-2.46
2019-01-25T08:13:14.154Z,-2.25
2019-01-25T08:15:43.059Z,-2.60
2019-01-25T08:18:11.945Z,-3.00
2019-01-25T08:20:40.821Z,-2.94
2019-01-25T08:23:09.817Z,-2.51
2019-01-25T08:25:38.607Z,-2.67
2019-01-25T08:28:07.556Z,-2.90
2019-01-25T08:30:37.080Z,-2.68
2019-01-25T08:33:06.191Z,-2.23
2019-01-25T08:35:35.260Z,-2.00
2019-01-25T08:38:06.378Z,-2.07
2019-01-25T08:40:34.804Z,-1.99
2019-01-25T08:43:03.595Z,-1.88
2019-01-25T08:45:32.445Z,-1.79
2019-01-25T08:48:01.281Z,-1.77
2019-01-25T08:50:30.310Z,-1.90
2019-01-25T08:52:59.262Z,-2.07
2019-01-25T08:55:28.194Z,-1.97
2019-01-25T08:57:57.225Z,-1.80
2019-01-25T09:00:26.326Z,-1.62
2019-01-25T09:02:55.642Z,-1.62
2019-01-25T09:05:25.084Z,-1.33
2019-01-25T09:07:54.030Z,-1.34
2019-01-25T09:10:23.013Z,-1.59
2019-01-25T09:12:51.876Z,-1.38
2019-01-25T09:15:23.453Z,-1.11
2019-01-25T09:17:52.399Z,-0.92
2019-01-25T09:20:21.621Z,-1.30
2019-01-25T09:22:50.919Z,-1.84
2019-01-25T09:25:19.834Z,-1.80
2019-01-25T09:27:48.883Z,-1.57
2019-01-25T09:30:19.935Z,-1.23
2019-01-25T09:32:48.878Z,-0.98
2019-01-25T09:35:18.465Z,-0.74
2019-01-25T09:37:47.553Z,-0.81
2019-01-25T09:40:19.096Z,-0.92
2019-01-25T09:42:47.895Z,-0.81
2019-01-25T09:45:16.830Z,-0.71
2019-01-25T09:47:45.706Z,-0.55
2019-01-25T09:50:16.479Z,-0.57
2019-01-25T09:52:45.426Z,-0.46
2019-01-25T09:55:16.636Z,-0.56
2019-01-25T09:57:45.495Z,-0.20
2019-01-25T10:00:27.487Z,-0.60
2019-01-25T10:02:56.363Z,-0.68
2019-01-25T10:05:25.235Z,-0.83
2019-01-25T10:07:54.339Z,-0.96
2019-01-25T10:10:23.251Z,-1.01
2019-01-25T10:12:52.054Z,-0.91
2019-01-25T10:15:24.039Z,-0.89
2019-01-25T10:17:53.024Z,-0.84
2019-01-25T10:20:22.050Z,-1.02
2019-01-25T10:22:50.925Z,-1.04
2019-01-25T10:25:19.871Z,-0.85
2019-01-25T10:27:48.824Z,-0.52
2019-01-25T10:30:20.304Z,-0.08
2019-01-25T10:32:49.175Z,0.18
2019-01-25T10:35:18.553Z,0.43
2019-01-25T10:37:47.594Z,0.31
2019-01-25T10:40:17.691Z,-0.12
2019-01-25T10:42:53.062Z,0.13
2019-01-25T10:45:42.710Z,0.20
2019-01-25T10:48:11.577Z,0.41
2019-01-25T10:50:40.482Z,0.49
2019-01-25T10:53:09.850Z,0.37
2019-01-25T10:55:39.197Z,0.26
2019-01-25T10:58:08.775Z,0.02
2019-01-25T11:00:37.713Z,0.41
2019-01-25T11:03:06.854Z,0.56
2019-01-25T11:05:35.789Z,0.61
2019-01-25T11:08:04.690Z,0.72
2019-01-25T11:10:33.476Z,0.42
2019-01-25T11:13:02.393Z,0.38
2019-01-25T11:15:31.322Z,0.27
2019-01-25T11:18:00.314Z,0.17
2019-01-25T11:20:29.245Z,0.21
2019-01-25T11:22:58.040Z,0.11
2019-01-25T11:25:32.652Z,0.18
2019-01-25T11:28:01.514Z,0.38
2019-01-25T11:30:30.401Z,0.36
2019-01-25T11:32:59.340Z,0.38
2019-01-25T11:35:28.318Z,0.24
2019-01-25T11:37:57.096Z,0.16
2019-01-25T11:40:28.524Z,0.37
2019-01-25T11:42:57.313Z,0.39
2019-01-25T11:45:26.181Z,0.24
2019-01-25T11:47:55.119Z,0.32
2019-01-25T11:50:23.909Z,0.38
2019-01-25T11:52:52.842Z,0.47
2019-01-25T11:55:21.713Z,0.52
2019-01-25T11:57:50.649Z,0.48
2019-01-25T12:00:22.167Z,0.54
2019-01-25T12:02:51.133Z,0.39
2019-01-25T12:05:21.451Z,0.43
2019-01-25T12:07:50.377Z,0.58
2019-01-25T12:10:21.607Z,0.57
2019-01-25T12:12:50.398Z,0.34
2019-01-25T12:15:19.268Z,0.54
2019-01-25T12:17:48.083Z,0.42
2019-01-25T12:20:20.085Z,0.80
2019-01-25T12:22:49.032Z,0.89
2019-01-25T12:25:17.981Z,0.89
2019-01-25T12:27:47.286Z,0.55
2019-01-25T12:30:22.258Z,0.70
2019-01-25T12:32:51.046Z,0.87
2019-01-25T12:35:19.914Z,0.97
2019-01-25T12:37:48.700Z,1.10
2019-01-25T12:40:17.835Z,0.99
2019-01-25T12:42:46.698Z,1.12
2019-01-25T12:45:18.350Z,1.16
2019-01-25T12:47:48.051Z,1.23
2019-01-25T12:50:20.061Z,1.46
2019-01-25T12:52:48.853Z,1.19
2019-01-25T12:55:18.564Z,1.04
2019-01-25T12:57:48.285Z,1.17
2019-01-25T13:00:19.498Z,1.15
2019-01-25T13:02:48.547Z,1.12
2019-01-25T13:05:17.616Z,0.81
2019-01-25T13:07:46.465Z,0.76
2019-01-25T13:10:16.152Z,0.93
2019-01-25T13:12:45.179Z,0.75
2019-01-25T13:15:14.465Z,0.97
2019-01-25T13:17:43.320Z,1.04
2019-01-25T13:20:17.522Z,0.96
2019-01-25T13:22:46.466Z,1.07
2019-01-25T13:25:15.468Z,1.04
2019-01-25T13:27:44.249Z,1.24
2019-01-25T13:30:15.891Z,1.21
2019-01-25T13:32:44.759Z,1.30
2019-01-25T13:35:13.711Z,1.29
2019-01-25T13:37:42.746Z,1.14
2019-01-25T13:40:14.168Z,1.04
2019-01-25T13:42:43.194Z,1.11
2019-01-25T13:45:13.849Z,0.85
2019-01-25T13:47:42.782Z,0.83
2019-01-25T13:50:13.884Z,0.92
2019-01-25T13:52:42.748Z,0.94
2019-01-25T13:55:12.963Z,1.08
2019-01-25T13:57:42.301Z,1.12
2019-01-25T14:00:26.178Z,0.91
2019-01-25T14:02:55.040Z,0.76
2019-01-25T14:05:24.216Z,0.78
2019-01-25T14:07:53.095Z,0.88
2019-01-25T14:10:24.455Z,0.78
2019-01-25T14:12:53.397Z,0.75
2019-01-25T14:15:22.342Z,0.83
2019-01-25T14:17:51.130Z,0.91
2019-01-25T14:20:23.690Z,0.91
2019-01-25T14:22:52.845Z,0.73
2019-01-25T14:25:22.037Z,0.93
2019-01-25T14:27:51.402Z,0.87
2019-01-25T14:30:27.261Z,0.96
2019-01-25T14:32:56.181Z,0.86
2019-01-25T14:35:25.123Z,0.90
2019-01-25T14:37:54.142Z,0.86
2019-01-25T14:40:23.184Z,0.72
2019-01-25T14:42:51.972Z,0.67
2019-01-25T14:45:21.828Z,0.71
2019-01-25T14:47:50.759Z,0.69
2019-01-25T14:50:20.917Z,0.78
2019-01-25T14:52:49.856Z,0.60
2019-01-25T14:55:18.744Z,0.64
2019-01-25T14:57:47.667Z,0.57
2019-01-25T15:00:16.624Z,0.49
2019-01-25T15:02:45.464Z,0.56
2019-01-25T15:05:16.594Z,0.51
2019-01-25T15:07:45.535Z,0.51
2019-01-25T15:10:16.844Z,0.41
2019-01-25T15:12:46.102Z,0.42
2019-01-25T15:15:15.852Z,0.31
2019-01-25T15:17:44.791Z,0.29
2019-01-25T15:20:25.998Z,0.20
2019-01-25T15:22:54.867Z,0.20
2019-01-25T15:25:23.830Z,0.15
2019-01-25T15:27:53.318Z,0.29
2019-01-25T15:30:25.159Z,0.18
2019-01-25T15:32:54.017Z,0.12
2019-01-25T15:35:24.118Z,0.13
2019-01-25T15:37:53.639Z,0.19
2019-01-25T15:40:22.806Z,0.10
2019-01-25T15:42:51.736Z,0.24
2019-01-25T15:45:21.289Z,0.31
2019-01-25T15:47:50.233Z,0.17
2019-01-25T15:50:21.409Z,0.06
2019-01-25T15:52:50.338Z,0.02
2019-01-25T15:55:19.824Z,0.10
2019-01-25T15:57:48.706Z,-0.01
2019-01-25T16:00:19.596Z,-0.05
2019-01-25T16:02:48.742Z,0.02
2019-01-25T16:05:19.225Z,0.00
2019-01-25T16:07:49.818Z,0.06
2019-01-25T16:10:19.698Z,0.01
2019-01-25T16:12:48.738Z,-0.11
2019-01-25T16:15:19.766Z,-0.19
2019-01-25T16:17:48.823Z,-0.02
2019-01-25T16:20:17.942Z,0.00
2019-01-25T16:22:47.199Z,-0.13
2019-01-25T16:25:18.338Z,-0.09
2019-01-25T16:27:47.241Z,-0.20
2019-01-25T16:30:18.921Z,-0.17
2019-01-25T16:32:47.789Z,-0.11
2019-01-25T16:35:16.903Z,-0.15
2019-01-25T16:37:45.932Z,-0.06
2019-01-25T16:40:16.671Z,-0.07
2019-01-25T16:42:45.536Z,-0.18
2019-01-25T16:45:20.089Z,-0.10
2019-01-25T16:47:49.004Z,-0.10
2019-01-25T16:50:23.615Z,-0.16
2019-01-25T16:52:48.752Z,-0.15
2019-01-25T16:55:17.696Z,-0.20
2019-01-25T16:57:46.566Z,-0.07
2019-01-25T17:00:22.226Z,-0.05
2019-01-25T17:02:51.261Z,0.03
2019-01-25T17:05:20.207Z,0.11
2019-01-25T17:07:49.071Z,0.05
2019-01-25T17:10:18.213Z,0.00
2019-01-25T17:12:47.095Z,0.05
2019-01-25T17:15:16.331Z,0.03
2019-01-25T17:17:45.203Z,0.06
2019-01-25T17:20:20.057Z,0.03
2019-01-25T17:22:45.708Z,0.10
2019-01-25T17:25:14.986Z,0.07
2019-01-25T17:27:43.926Z,0.11
2019-01-25T17:30:19.503Z,0.32
2019-01-25T17:32:48.542Z,0.28
2019-01-25T17:35:17.386Z,0.20
2019-01-25T17:37:46.244Z,0.34
2019-01-25T17:40:16.463Z,0.19
2019-01-25T17:42:45.386Z,0.11
2019-01-25T17:45:14.983Z,0.27
2019-01-25T17:47:43.830Z,0.36
2019-01-25T17:50:13.400Z,0.24
2019-01-25T17:52:42.319Z,0.32
2019-01-25T17:55:11.827Z,0.29
2019-01-25T17:57:40.674Z,0.32
2019-01-25T18:00:16.362Z,0.40
2019-01-25T18:02:45.220Z,0.28
2019-01-25T18:05:14.263Z,0.13
2019-01-25T18:07:44.261Z,0.17
2019-01-25T18:10:15.492Z,0.12
2019-01-25T18:12:44.350Z,0.12
2019-01-25T18:15:13.747Z,0.12
2019-01-25T18:17:42.702Z,0.06
2019-01-25T18:20:14.263Z,0.04
2019-01-25T18:22:43.180Z,0.07
2019-01-25T18:25:14.233Z,0.12
2019-01-25T18:27:46.399Z,0.18
2019-01-25T18:30:20.511Z,0.35
2019-01-25T18:32:49.287Z,0.34
2019-01-25T18:35:18.155Z,0.23
2019-01-25T18:37:47.006Z,0.22
2019-01-25T18:40:15.890Z,0.27
2019-01-25T18:42:44.717Z,0.14
2019-01-25T18:45:13.655Z,0.12
2019-01-25T18:47:42.555Z,0.17
2019-01-25T18:50:12.975Z,0.20
2019-01-25T18:52:41.827Z,0.24
2019-01-25T18:55:13.687Z,0.29
2019-01-25T18:57:42.479Z,0.30
2019-01-25T19:00:14.829Z,0.34
2019-01-25T19:02:43.682Z,0.45
2019-01-25T19:05:12.628Z,0.44
2019-01-25T19:07:41.561Z,0.39
2019-01-25T19:10:13.525Z,0.30
2019-01-25T19:12:42.384Z,0.20
2019-01-25T19:15:13.672Z,0.23
2019-01-25T19:17:42.640Z,0.21
2019-01-25T19:20:12.715Z,0.14
2019-01-25T19:22:41.762Z,0.12
2019-01-25T19:25:10.704Z,0.14
2019-01-25T19:27:39.554Z,0.07
2019-01-25T19:30:16.832Z,0.10
2019-01-25T19:32:45.763Z,0.12
2019-01-25T19:35:14.732Z,0.06
2019-01-25T19:37:43.660Z,0.06
2019-01-25T19:40:14.599Z,0.08
2019-01-25T19:42:43.557Z,0.04
2019-01-25T19:45:12.926Z,0.10
2019-01-25T19:47:41.844Z,0.09
2019-01-25T19:50:12.974Z,0.05
2019-01-25T19:52:41.934Z,0.00
2019-01-25T19:55:13.840Z,0.03
2019-01-25T19:57:42.867Z,0.01
2019-01-25T20:00:24.332Z,0.03
2019-01-25T20:02:53.256Z,0.02
2019-01-25T20:05:22.458Z,0.01
2019-01-25T20:07:51.493Z,0.07
2019-01-25T20:10:20.810Z,0.07
2019-01-25T20:12:50.098Z,0.06
2019-01-25T20:15:19.747Z,0.06
2019-01-25T20:17:48.619Z,0.06
2019-01-25T20:20:20.379Z,0.15
2019-01-25T20:22:49.308Z,0.16
2019-01-25T20:25:18.244Z,0.14
2019-01-25T20:27:47.039Z,0.10
2019-01-25T20:30:21.815Z,0.09
2019-01-25T20:32:50.682Z,0.04
2019-01-25T20:35:21.385Z,0.08
2019-01-25T20:37:50.187Z,0.07
2019-01-25T20:40:19.102Z,0.10
2019-01-25T20:42:47.982Z,0.03
2019-01-25T20:45:27.054Z,0.00
2019-01-25T20:47:52.782Z,-0.01
2019-01-25T20:50:24.560Z,-0.02
2019-01-25T20:52:53.652Z,0.00
2019-01-25T20:55:22.694Z,0.00
2019-01-25T20:57:51.572Z,-0.02
2019-01-25T21:00:22.890Z,-0.06
2019-01-25T21:02:52.186Z,-0.08
2019-01-25T21:05:21.550Z,-0.02
2019-01-25T21:07:50.451Z,0.05
2019-01-25T21:10:20.743Z,0.10
2019-01-25T21:12:49.880Z,0.00
2019-01-25T21:15:20.285Z,0.07
2019-01-25T21:17:49.430Z,0.10
2019-01-25T21:20:20.764Z,0.10
2019-01-25T21:22:49.724Z,0.07
2019-01-25T21:27:50.213Z,0.13
2019-01-25T21:30:22.004Z,0.05
2019-01-25T21:32:50.960Z,0.05
2019-01-25T21:35:19.990Z,0.04
2019-01-25T21:37:48.869Z,0.04
2019-01-25T21:40:19.880Z,0.13
2019-01-25T21:42:48.910Z,0.06
2019-01-25T21:45:20.041Z,0.15
2019-01-25T21:47:49.155Z,0.18
2019-01-25T21:50:20.140Z,0.17
2019-01-25T21:52:49.271Z,0.24
2019-01-25T21:55:18.194Z,0.15
2019-01-25T21:57:47.059Z,0.16
2019-01-25T22:02:45.651Z,0.27
2019-01-25T22:05:14.835Z,0.20
2019-01-25T22:07:43.775Z,0.19
2019-01-25T22:10:15.511Z,0.18
2019-01-25T22:12:44.374Z,0.22
2019-01-25T22:15:15.364Z,0.25
2019-01-25T22:17:44.621Z,0.27
2019-01-25T22:20:16.767Z,0.24
2019-01-25T22:22:45.618Z,0.34
2019-01-25T22:25:14.677Z,0.26
2019-01-25T22:27:44.186Z,0.23
2019-01-25T22:30:15.648Z,0.30
2019-01-25T22:32:44.578Z,0.28
2019-01-25T22:35:13.608Z,0.23
2019-01-25T22:37:42.481Z,0.26
2019-01-25T22:40:14.905Z,0.19
2019-01-25T22:42:44.084Z,0.20
2019-01-25T22:45:15.048Z,0.28
2019-01-25T22:47:43.984Z,0.23
2019-01-25T22:50:16.774Z,0.19
2019-01-25T22:52:45.698Z,0.31
2019-01-25T22:55:15.262Z,0.17
2019-01-25T22:57:44.190Z,0.17
2019-01-25T23:00:52.028Z,0.16
2019-01-25T23:04:00.824Z,0.16
2019-01-25T23:06:39.924Z,0.15
2019-01-25T23:09:32.095Z,0.13
2019-01-25T23:12:01.038Z,0.10
2019-01-25T23:14:29.837Z,0.20
2019-01-25T23:16:58.829Z,0.13
2019-01-25T23:19:27.772Z,0.16
2019-01-25T23:21:56.625Z,0.10
2019-01-25T23:24:25.580Z,0.22
2019-01-25T23:26:54.427Z,0.15
2019-01-25T23:29:23.366Z,0.18
2019-01-25T23:31:52.218Z,0.15
2019-01-25T23:34:21.005Z,0.13
2019-01-25T23:36:49.784Z,0.12
2019-01-25T23:39:18.628Z,0.10
2019-01-25T23:41:47.476Z,0.20
2019-01-25T23:44:16.421Z,0.13
2019-01-25T23:46:45.213Z,0.11
2019-01-25T23:49:13.995Z,0.09
2019-01-25T23:51:42.867Z,0.14
2019-01-25T23:54:11.649Z,0.10
2019-01-25T23:56:40.444Z,0.08
2019-01-25T23:59:09.223Z,0.11
